Pagrindinis puslapis
METAR-TAF:

METAR-TAF

Oro uostai :

Ciuricho oro uostas

Ciurichas, Šveicarija

platuma: 47-29N, ilguma: 008-32E, Aukštis: 436 m

Dabartinis oras

Ataskaita buvo paskelbta 26 minutes, ne 20:50 UTC
Vėjas 6 kt iš Šiaurės Vakarų
Temperatūra 9°C
Drėgmė 71%
Slėgis 1023 hPa
Matomumas 10 km arba daugiau
nėra debesų žemiau 1500 m ir nėra kamuolinių lietaus debesų

METAR: LSZH 202050Z 32006KT CAVOK 09/04 Q1023 NOSIG

Laikas: 23:16 (21:16 UTC)

Prognozė

Ataskaita buvo paskelbta 51 minutes, ne 20:25 UTC
Prognozė galioja nuo 20 metu 21 UTC su 22 metu 03 UTC
Vėjas 3 kt nuo kintamojo kryptimis
Matomumas 10 km arba daugiau
nėra debesų žemiau 1500 m ir nėra kamuolinių lietaus debesų
Tikimybė 30%
nuo 21 metu 01 UTC su 21 metu 07 UTC
Matomumas: 4000 m
Sekli rūkas
Tapsmas
nuo 22 metu 00 UTC su 22 metu 03 UTC
Matomumas: 4000 m
Sekli rūkas

TAF: LSZH 202025Z 2021/2203 VRB03KT CAVOK TX21/2114Z TN06/2105Z PROB30 2101/2107 4000 MIFG BECMG 2200/2203 4000 MIFG

Orai ataskaitas ir orų prognozės (METAR, TAF).

turimą stotys yra geltonos ir raudonos taškus žemėlapyje.

Perkelti pele per norėdami pamatyti stoties vardą.

Tada spustelėkite, norėdami matyti oro stebėjimo ir prognozės.

Norėdami pakeisti žemėlapį: spustelėkite ant žalios mygtukų su juodo kryžiaus žemyn,; žalią mygtuką su brūkšneliu, jei norite nutolinti; arba žalių rodyklių gretimoms žemėlapius.


METAR-TAF: